Time;durP1;ratioP1;P1;durP2;ratioP2;P2;SDS_P1;SDS_P2;PMS_P1;PMS_P2;Temp;Humidity;BMP_temperature;BMP_pressure;BME280_temperature;BME280_humidity;BME280_pressure;Samples;Min_cycle;Max_cycle;Signal;HPM_P1;HPM_P2
2021/03/02 00:01:51;;;;;;;8.82;7.18;;;;;;;8.66;59.32;101677.59;10274790;28;20690;-61
2021/03/02 00:06:53;;;;;;;8.52;7.53;;;;;;;8.58;59.54;101674.47;10274380;28;20042;-62
2021/03/02 00:11:54;;;;;;;9.80;8.15;;;;;;;8.57;59.36;101681.59;10270217;28;20073;-62
2021/03/02 00:17:00;;;;;;;7.78;7.03;;;;;;;8.46;59.41;101674.13;10282255;28;20057;-62
2021/03/02 00:22:09;;;;;;;8.90;6.80;;;;;;;8.49;59.41;101667.81;10276273;28;20081;-62
2021/03/02 00:27:11;;;;;;;11.93;7.43;;;;;;;8.37;59.69;101663.09;10276805;28;20110;-61
2021/03/02 00:32:17;;;;;;;8.43;7.35;;;;;;;8.42;59.64;101672.53;10282039;28;20138;-61
2021/03/02 00:37:19;;;;;;;8.93;6.55;;;;;;;8.36;59.59;101670.19;10274016;28;20085;-62
2021/03/02 00:42:20;;;;;;;7.07;6.38;;;;;;;8.40;59.27;101677.06;10267251;28;20451;-62
2021/03/02 00:47:22;;;;;;;9.38;6.80;;;;;;;8.39;59.38;101683.31;10269868;28;20574;-62
2021/03/02 00:52:23;;;;;;;8.95;7.18;;;;;;;8.37;59.21;101684.31;10276108;28;20077;-62
2021/03/02 00:57:25;;;;;;;7.30;6.57;;;;;;;8.29;59.41;101671.41;10271397;28;20137;-62
2021/03/02 01:02:26;;;;;;;8.00;7.10;;;;;;;8.32;59.34;101679.22;10274096;28;20062;-62
2021/03/02 01:07:28;;;;;;;7.18;6.47;;;;;;;8.30;59.45;101673.13;10267395;28;20054;-62
2021/03/02 01:12:29;;;;;;;10.25;7.95;;;;;;;8.27;59.28;101676.81;10272543;28;20058;-62
2021/03/02 01:17:30;;;;;;;7.93;7.13;;;;;;;8.25;59.38;101676.00;10281744;28;20074;-62
2021/03/02 01:22:32;;;;;;;7.63;6.50;;;;;;;8.24;59.34;101669.00;10270662;28;20058;-63
2021/03/02 01:27:33;;;;;;;8.30;6.80;;;;;;;8.20;59.27;101663.91;10271074;28;20054;-62
2021/03/02 01:32:35;;;;;;;8.95;6.85;;;;;;;8.22;59.51;101675.28;10272949;28;20073;-63
2021/03/02 01:37:37;;;;;;;7.55;6.75;;;;;;;8.09;59.10;101662.63;10271981;28;20071;-62
2021/03/02 01:42:39;;;;;;;7.88;7.07;;;;;;;8.14;59.34;101673.88;10273148;28;20654;-61
2021/03/02 01:47:42;;;;;;;8.90;7.55;;;;;;;8.10;59.40;101676.72;10263764;28;20094;-61
2021/03/02 01:52:44;;;;;;;9.80;7.03;;;;;;;8.04;59.58;101672.56;10260516;28;20130;-63
2021/03/02 01:57:46;;;;;;;7.93;6.72;;;;;;;8.10;59.29;101676.72;10264476;28;20066;-62
2021/03/02 02:02:56;;;;;;;8.90;6.88;;;;;;;8.07;59.24;101667.13;10263502;28;20054;-62
2021/03/02 02:08:02;;;;;;;9.25;8.18;;;;;;;8.07;59.29;101666.28;10280795;28;20109;-62
2021/03/02 02:13:16;;;;;;;9.05;6.88;;;;;;;7.96;59.69;101670.28;10281507;28;20110;-62
2021/03/02 02:18:25;;;;;;;8.52;7.15;;;;;;;7.85;59.98;101661.13;10275929;28;20843;-62
2021/03/02 02:23:46;;;;;;;9.02;7.50;;;;;;;7.81;60.09;101663.06;10280654;28;20042;-62
2021/03/02 02:28:48;;;;;;;7.93;7.00;;;;;;;7.75;60.56;101664.19;10282662;28;20113;-62
2021/03/02 02:33:50;;;;;;;9.85;7.95;;;;;;;7.73;60.21;101663.41;10269326;28;20051;-61
2021/03/02 02:39:00;;;;;;;9.82;7.10;;;;;;;7.72;60.33;101668.78;10264151;28;20126;-62
2021/03/02 02:44:04;;;;;;;9.30;7.25;;;;;;;7.71;60.34;101665.25;10270037;28;20105;-62
2021/03/02 02:49:08;;;;;;;8.57;7.40;;;;;;;7.67;60.53;101666.34;10263702;28;20042;-62
2021/03/02 02:54:11;;;;;;;8.55;7.30;;;;;;;7.64;60.67;101670.91;10266364;28;20480;-62
2021/03/02 02:59:28;;;;;;;9.43;8.30;;;;;;;7.52;60.93;101680.28;10265234;28;20051;-62
2021/03/02 03:04:46;;;;;;;8.48;7.38;;;;;;;7.55;60.74;101675.72;10262054;28;20105;-61
2021/03/02 03:09:51;;;;;;;9.85;8.23;;;;;;;7.52;60.66;101673.22;10262855;28;20058;-62
2021/03/02 03:14:59;;;;;;;9.18;7.53;;;;;;;7.51;60.49;101678.56;10262322;28;20058;-61
2021/03/02 03:20:04;;;;;;;10.55;9.38;;;;;;;7.46;60.37;101675.25;10259014;28;20042;-61
2021/03/02 03:25:08;;;;;;;9.13;8.20;;;;;;;7.34;60.86;101682.84;10260605;28;20051;-62
2021/03/02 03:30:11;;;;;;;10.02;8.38;;;;;;;7.24;61.27;101676.22;10256956;28;20058;-60
2021/03/02 03:35:12;;;;;;;10.77;9.07;;;;;;;7.26;60.74;101683.16;10256473;28;20654;-61
2021/03/02 03:40:14;;;;;;;11.80;8.55;;;;;;;7.28;60.69;101683.13;10252137;28;20113;-61
2021/03/02 03:45:16;;;;;;;12.20;10.00;;;;;;;7.21;60.72;101686.94;10255420;28;20055;-62
2021/03/02 03:50:18;;;;;;;11.82;10.60;;;;;;;7.01;61.56;101691.31;10256869;28;20074;-61
2021/03/02 03:55:24;;;;;;;10.38;8.57;;;;;;;6.87;61.54;101685.72;10251344;28;20054;-60
2021/03/02 04:00:26;;;;;;;12.65;10.00;;;;;;;6.87;61.86;101683.09;10257427;28;20059;-62
2021/03/02 04:05:28;;;;;;;11.80;10.18;;;;;;;6.84;62.04;101683.22;10250810;28;20187;-61
2021/03/02 04:10:29;;;;;;;11.07;9.43;;;;;;;6.81;62.08;101684.19;10260705;28;20508;-61
2021/03/02 04:15:32;;;;;;;10.93;9.82;;;;;;;6.78;62.31;101688.78;10255812;28;20122;-60
2021/03/02 04:20:33;;;;;;;10.52;9.20;;;;;;;6.73;61.93;101691.63;10254255;28;20059;-60
2021/03/02 04:25:35;;;;;;;10.07;8.30;;;;;;;6.70;62.22;101691.75;10259552;28;20296;-61
2021/03/02 04:30:36;;;;;;;9.38;8.38;;;;;;;6.70;62.10;101689.94;10258534;28;20047;-61
2021/03/02 04:35:38;;;;;;;9.88;8.82;;;;;;;6.73;61.72;101692.47;10257666;28;20614;-61
2021/03/02 04:40:39;;;;;;;11.82;9.25;;;;;;;6.58;61.80;101669.28;10285095;22;20126;-65
2021/03/02 04:45:41;;;;;;;11.15;9.73;;;;;;;6.62;62.24;101680.59;10270530;28;20105;-67
2021/03/02 04:50:42;;;;;;;10.57;8.95;;;;;;;6.62;62.01;101699.13;10243200;28;20399;-66
2021/03/02 04:55:44;;;;;;;10.73;9.60;;;;;;;6.59;62.23;101700.13;10241371;28;20126;-65
2021/03/02 05:00:46;;;;;;;11.63;9.00;;;;;;;6.59;62.35;101697.47;10232986;28;20043;-66
2021/03/02 05:05:47;;;;;;;10.70;8.75;;;;;;;6.58;61.95;101689.59;10232691;28;20051;-65
2021/03/02 05:10:48;;;;;;;9.02;7.85;;;;;;;6.60;62.28;101683.31;10232767;28;20043;-66
2021/03/02 05:15:49;;;;;;;9.65;8.02;;;;;;;6.54;61.88;101676.50;10236839;28;20098;-66
2021/03/02 05:20:52;;;;;;;9.43;8.13;;;;;;;6.61;61.76;101687.69;10247492;28;20054;-65
2021/03/02 05:25:53;;;;;;;14.57;8.18;;;;;;;6.63;61.36;101691.13;10247237;28;20062;-65
2021/03/02 05:30:54;;;;;;;10.45;8.38;;;;;;;6.53;61.44;101674.78;10254801;28;20051;-67
2021/03/02 05:35:56;;;;;;;10.45;8.82;;;;;;;6.57;61.47;101683.44;10245942;28;20058;-65
2021/03/02 05:40:58;;;;;;;12.98;9.55;;;;;;;6.49;61.45;101685.53;10240727;28;20075;-67
2021/03/02 05:45:59;;;;;;;11.00;8.95;;;;;;;6.50;61.35;101692.53;10253918;28;20062;-65
2021/03/02 05:51:01;;;;;;;10.55;8.70;;;;;;;6.45;61.61;101698.00;10242644;28;20051;-66
2021/03/02 05:56:03;;;;;;;11.23;9.73;;;;;;;6.36;61.59;101709.84;10243691;28;20043;-67
2021/03/02 06:01:05;;;;;;;11.77;9.60;;;;;;;6.10;61.96;101688.84;10238004;28;20047;-69
2021/03/02 06:06:07;;;;;;;11.75;10.10;;;;;;;6.08;62.61;101711.81;10238800;28;20155;-68
2021/03/02 06:11:37;;;;;;;13.48;11.18;;;;;;;6.03;62.60;101719.94;10233965;28;20071;-66
2021/03/02 06:16:49;;;;;;;14.18;10.65;;;;;;;6.05;62.57;101719.88;10210552;28;20050;-64
2021/03/02 06:21:50;;;;;;;15.60;12.70;;;;;;;6.03;62.71;101734.94;10239379;28;20410;-65
2021/03/02 06:27:06;;;;;;;14.10;10.85;;;;;;;6.06;62.08;101727.75;10229400;28;20141;-65
2021/03/02 06:32:08;;;;;;;14.07;12.13;;;;;;;6.05;62.25;101731.31;10236457;28;20039;-64
2021/03/02 06:37:09;;;;;;;14.32;11.50;;;;;;;6.22;61.70;101738.59;10210601;28;20059;-66
2021/03/02 06:42:21;;;;;;;13.07;11.43;;;;;;;6.08;62.15;101728.56;10222477;28;20047;-67
2021/03/02 06:47:34;;;;;;;14.73;11.80;;;;;;;6.12;62.04;101739.88;10228707;28;20039;-67
2021/03/02 06:52:41;;;;;;;11.63;10.35;;;;;;;6.28;61.66;101745.44;10228603;28;20498;-67
2021/03/02 06:57:48;;;;;;;14.20;11.10;;;;;;;6.39;61.32;101750.31;10219849;28;20051;-66
2021/03/02 07:02:49;;;;;;;14.95;12.10;;;;;;;6.54;60.89;101744.41;10235968;28;21702;-66
2021/03/02 07:07:59;;;;;;;13.93;10.25;;;;;;;6.78;60.68;101754.94;10224990;28;20143;-64
2021/03/02 07:13:00;;;;;;;14.48;11.45;;;;;;;6.95;60.04;101752.47;10227780;28;20420;-66
2021/03/02 07:18:03;;;;;;;12.15;9.93;;;;;;;7.29;59.33;101750.19;10228772;28;20490;-65
2021/03/02 07:23:06;;;;;;;12.93;10.77;;;;;;;7.51;58.55;101752.78;10237483;28;20055;-66
2021/03/02 07:28:07;;;;;;;14.73;11.00;;;;;;;7.72;57.99;101759.75;10227745;28;20074;-65
2021/03/02 07:33:09;;;;;;;14.95;11.98;;;;;;;7.99;57.11;101767.41;10228303;28;20506;-65
2021/03/02 07:38:20;;;;;;;14.77;11.98;;;;;;;8.21;56.56;101771.72;10224499;28;20058;-64
2021/03/02 07:43:41;;;;;;;16.27;10.80;;;;;;;8.41;55.92;101771.66;10233275;28;20055;-65
2021/03/02 07:48:43;;;;;;;13.70;9.10;;;;;;;8.61;54.97;101767.22;10225144;28;20053;-65
2021/03/02 07:53:46;;;;;;;11.65;9.82;;;;;;;8.84;54.29;101769.63;10229920;28;20125;-65
2021/03/02 07:59:02;;;;;;;10.75;9.57;;;;;;;9.10;53.65;101770.13;10242650;28;20051;-65
2021/03/02 08:04:16;;;;;;;11.32;9.45;;;;;;;9.29;53.31;101775.38;10223396;28;20379;-64
2021/03/02 08:09:29;;;;;;;12.02;9.10;;;;;;;9.47;52.67;101773.56;10229089;28;20047;-65
2021/03/02 08:14:31;;;;;;;10.88;9.25;;;;;;;9.69;52.15;101775.94;10222490;28;20102;-65
2021/03/02 08:19:49;;;;;;;9.90;8.18;;;;;;;9.87;50.92;101779.44;10214967;28;20199;-66
2021/03/02 08:24:58;;;;;;;11.45;9.73;;;;;;;10.02;51.02;101779.56;10229196;28;20978;-63
2021/03/02 08:29:59;;;;;;;10.63;8.10;;;;;;;10.27;50.85;101785.28;10222114;28;20391;-65
2021/03/02 08:35:06;;;;;;;10.43;8.07;;;;;;;10.06;51.22;101787.31;10223282;28;22509;-66
2021/03/02 08:40:11;;;;;;;9.05;8.07;;;;;;;10.33;50.37;101789.44;10219474;28;20126;-66
2021/03/02 08:45:12;;;;;;;14.00;11.20;;;;;;;10.71;49.27;101788.25;10220424;28;20055;-66
2021/03/02 08:50:14;;;;;;;17.95;14.85;;;;;;;11.06;48.39;101790.69;10219586;28;20057;-66
2021/03/02 08:55:15;;;;;;;11.75;9.27;;;;;;;11.32;47.42;101784.69;10232757;28;20051;-65
2021/03/02 09:00:17;;;;;;;12.15;9.15;;;;;;;11.59;46.50;101788.44;10226962;28;20057;-66
2021/03/02 09:05:20;;;;;;;11.88;9.63;;;;;;;11.96;46.13;101789.75;10235295;28;20067;-66
2021/03/02 09:10:21;;;;;;;13.57;9.95;;;;;;;12.14;45.80;101800.25;10222779;28;20065;-66
2021/03/02 09:15:42;;;;;;;10.65;9.15;;;;;;;12.55;44.47;101786.09;10231456;28;20090;-65
2021/03/02 09:20:56;;;;;;;11.88;10.25;;;;;;;12.67;43.62;101793.31;10226274;28;20058;-65
2021/03/02 09:25:57;;;;;;;12.30;10.18;;;;;;;13.22;42.56;101795.97;10232645;28;20125;-64
2021/03/02 09:30:59;;;;;;;13.82;10.27;;;;;;;13.31;42.24;101768.59;10227633;28;20054;-65
2021/03/02 09:36:01;;;;;;;13.70;10.38;;;;;;;13.91;40.74;101788.56;10227724;28;20529;-66
2021/03/02 09:41:03;;;;;;;10.30;9.13;;;;;;;14.38;39.45;101791.53;10219415;28;20059;-66
2021/03/02 09:46:06;;;;;;;12.73;9.98;;;;;;;14.75;39.24;101783.47;10225798;28;20051;-64
2021/03/02 09:51:44;;;;;;;11.30;9.48;;;;;;;15.24;38.12;101787.00;10233318;28;20163;-64
2021/03/02 09:56:56;;;;;;;11.98;9.80;;;;;;;15.57;37.60;101780.03;10198617;28;20054;-65
2021/03/02 10:02:01;;;;;;;11.98;10.07;;;;;;;16.18;36.33;101779.75;10217462;28;20434;-65
2021/03/02 10:07:12;;;;;;;13.07;10.40;;;;;;;17.01;34.64;101790.06;10221655;28;20158;-67
2021/03/02 10:12:14;;;;;;;14.10;11.32;;;;;;;18.01;32.61;101795.03;10223476;28;20102;-65
2021/03/02 10:17:15;;;;;;;11.77;10.52;;;;;;;21.34;27.15;101787.09;10224110;28;20062;-64
2021/03/02 10:22:24;;;;;;;11.52;10.35;;;;;;;23.32;24.68;101779.78;10225046;28;20051;-64
2021/03/02 10:27:25;;;;;;;11.77;9.30;;;;;;;23.96;23.31;101780.69;10240826;28;20521;-66
2021/03/02 10:32:27;;;;;;;10.77;8.70;;;;;;;22.20;25.16;101777.28;10229414;28;20051;-66
2021/03/02 10:37:28;;;;;;;10.88;8.90;;;;;;;21.19;26.04;101765.97;10228749;28;20054;-66
2021/03/02 10:42:30;;;;;;;10.38;8.10;;;;;;;21.47;26.29;101773.13;10221876;28;20059;-65
2021/03/02 10:47:31;;;;;;;10.73;9.15;;;;;;;23.08;24.15;101770.56;10221999;28;20039;-65
2021/03/02 10:52:45;;;;;;;9.57;8.63;;;;;;;27.03;19.58;101770.31;10218709;28;20131;-65
2021/03/02 10:57:46;;;;;;;10.18;8.43;;;;;;;29.24;17.00;101761.28;10217727;28;20055;-64
2021/03/02 11:02:47;;;;;;;10.27;8.65;;;;;;;30.68;15.90;101764.00;10223067;28;20567;-66
2021/03/02 11:07:49;;;;;;;8.73;7.93;;;;;;;31.66;15.50;101755.41;10223128;28;20051;-64
2021/03/02 11:12:53;;;;;;;9.88;8.57;;;;;;;32.12;14.03;101745.81;10218332;28;20178;-65
2021/03/02 11:17:54;;;;;;;9.55;8.65;;;;;;;33.06;13.15;101745.28;10226094;28;20063;-65
2021/03/02 11:23:08;;;;;;;9.75;8.75;;;;;;;33.76;13.00;101742.78;10224622;28;20051;-65
2021/03/02 11:28:12;;;;;;;9.75;8.77;;;;;;;34.67;11.88;101736.56;10222983;28;20122;-66
2021/03/02 11:33:14;;;;;;;9.25;8.35;;;;;;;33.82;12.55;101728.00;10226661;28;20051;-64
2021/03/02 11:38:16;;;;;;;9.13;8.20;;;;;;;34.96;12.03;101733.75;10228925;28;20047;-65
2021/03/02 11:43:18;;;;;;;9.43;8.60;;;;;;;35.68;11.42;101719.06;10221417;28;20055;-65
2021/03/02 11:48:19;;;;;;;8.55;7.75;;;;;;;36.15;11.00;101708.53;10236966;28;20970;-65
2021/03/02 11:53:30;;;;;;;8.25;7.55;;;;;;;36.25;10.90;101705.88;10222517;28;20229;-65
2021/03/02 11:58:31;;;;;;;8.90;7.90;;;;;;;36.65;10.41;101701.00;10240484;28;20055;-66
2021/03/02 12:03:33;;;;;;;8.45;7.75;;;;;;;36.76;10.60;101692.53;10215794;28;20055;-65
2021/03/02 12:08:35;;;;;;;8.20;7.35;;;;;;;38.23;9.26;101691.09;10235480;28;20391;-66
2021/03/02 12:13:36;;;;;;;9.18;7.88;;;;;;;37.94;9.76;101674.88;10215400;28;20063;-66
2021/03/02 12:18:38;;;;;;;9.25;7.45;;;;;;;38.00;9.45;101669.06;10234762;28;20126;-67
2021/03/02 12:23:51;;;;;;;8.00;7.13;;;;;;;37.52;9.71;101665.56;10222062;28;20067;-66
2021/03/02 12:28:52;;;;;;;8.98;8.18;;;;;;;38.15;9.44;101671.03;10229803;28;20043;-66
2021/03/02 12:33:54;;;;;;;8.73;7.93;;;;;;;38.46;9.41;101659.13;10233714;28;20055;-66
2021/03/02 12:38:56;;;;;;;8.75;7.90;;;;;;;39.64;8.51;101652.53;10225749;28;20142;-66
2021/03/02 12:43:57;;;;;;;8.48;7.63;;;;;;;39.32;8.56;101632.31;10223571;28;20110;-67
2021/03/02 12:48:59;;;;;;;8.15;7.47;;;;;;;39.40;8.67;101642.03;10225747;28;20050;-66
2021/03/02 12:54:12;;;;;;;9.38;8.48;;;;;;;39.65;8.06;101629.94;10225047;28;20478;-67
2021/03/02 12:59:13;;;;;;;9.02;8.18;;;;;;;40.98;7.95;101630.84;10233664;28;20066;-67
2021/03/02 13:04:15;;;;;;;8.35;7.55;;;;;;;41.07;7.70;101631.03;10224049;28;20087;-68
2021/03/02 13:09:17;;;;;;;8.20;7.50;;;;;;;41.00;7.71;101619.38;10225509;28;20051;-69
2021/03/02 13:14:18;;;;;;;8.05;7.28;;;;;;;41.45;7.45;101614.38;10221146;28;20062;-69
2021/03/02 13:19:20;;;;;;;7.88;6.88;;;;;;;40.98;7.95;101613.28;10228926;28;20055;-69
2021/03/02 13:24:35;;;;;;;7.97;7.20;;;;;;;41.48;7.70;101613.78;10223909;28;20125;-70
2021/03/02 13:29:41;;;;;;;8.27;7.47;;;;;;;40.36;7.85;101611.06;10240116;28;20106;-69
2021/03/02 13:34:45;;;;;;;7.85;7.25;;;;;;;40.69;7.80;101602.97;10227547;28;20047;-68
2021/03/02 13:39:47;;;;;;;8.05;7.35;;;;;;;41.20;7.64;101595.13;10224794;28;20055;-70
2021/03/02 13:44:52;;;;;;;7.47;6.88;;;;;;;39.94;8.14;101604.13;10221646;28;20059;-69
2021/03/02 13:49:54;;;;;;;8.25;7.55;;;;;;;39.85;8.53;101587.19;10238797;28;20051;-68
2021/03/02 13:55:00;;;;;;;8.20;7.43;;;;;;;40.36;8.25;101599.09;10223172;28;20052;-68
2021/03/02 14:00:05;;;;;;;7.95;7.28;;;;;;;39.89;7.98;101591.06;10220908;28;20051;-70
2021/03/02 14:05:10;;;;;;;7.45;6.75;;;;;;;40.07;8.28;101591.50;10221149;28;20063;-68
2021/03/02 14:10:12;;;;;;;6.88;6.28;;;;;;;40.63;7.95;101587.41;10232898;28;20047;-69
2021/03/02 14:15:14;;;;;;;7.88;7.13;;;;;;;39.81;8.28;101590.84;10207282;28;20059;-68
2021/03/02 14:20:20;;;;;;;7.75;7.15;;;;;;;39.59;8.12;101580.94;10221462;28;20061;-68
2021/03/02 14:25:24;;;;;;;8.70;7.90;;;;;;;39.00;8.56;101580.59;10225437;28;20153;-67
2021/03/02 14:30:26;;;;;;;8.30;7.50;;;;;;;39.21;8.44;101570.25;10247397;22;20049;-70
2021/03/02 14:35:27;;;;;;;8.45;7.50;;;;;;;38.59;8.72;101575.13;10327641;28;20073;-71
2021/03/02 14:40:29;;;;;;;10.52;7.40;;;;;;;37.85;9.13;101571.81;10323647;28;20042;-70
2021/03/02 14:45:37;;;;;;;7.38;6.78;;;;;;;37.23;9.99;101567.94;10322091;28;20038;-71
2021/03/02 14:50:44;;;;;;;8.65;7.88;;;;;;;36.87;9.88;101563.06;10344709;28;20048;-70
2021/03/02 14:55:53;;;;;;;8.60;7.57;;;;;;;36.27;10.66;101557.69;10318810;28;20343;-71
2021/03/02 15:01:00;;;;;;;8.73;7.85;;;;;;;33.07;12.88;101559.44;10320421;28;20054;-71
2021/03/02 15:06:03;;;;;;;8.82;7.93;;;;;;;30.79;14.87;101558.25;10318988;28;20054;-70
2021/03/02 15:11:04;;;;;;;9.55;7.85;;;;;;;27.38;18.20;101551.69;10293341;28;20093;-70
2021/03/02 15:16:07;;;;;;;8.90;7.95;;;;;;;25.15;20.42;101572.66;10309767;28;20101;-71
2021/03/02 15:21:08;;;;;;;9.55;8.60;;;;;;;23.67;22.49;101569.22;10309991;28;20050;-71
2021/03/02 15:26:14;;;;;;;11.97;8.73;;;;;;;22.78;23.73;101564.75;10307870;28;20286;-71
2021/03/02 15:31:16;;;;;;;10.07;8.05;;;;;;;21.57;25.01;101554.44;10307022;28;20050;-70
2021/03/02 15:36:23;;;;;;;12.57;9.87;;;;;;;20.91;26.17;101547.84;10309472;28;20053;-71
2021/03/02 15:41:24;;;;;;;10.88;9.60;;;;;;;20.56;27.04;101552.34;10310258;28;20080;-69
2021/03/02 15:46:26;;;;;;;10.88;9.02;;;;;;;20.19;27.50;101553.38;10309510;28;20046;-70
2021/03/02 15:51:28;;;;;;;10.87;8.70;;;;;;;19.67;27.88;101543.22;10310927;28;20057;-70
2021/03/02 15:56:33;;;;;;;10.87;9.30;;;;;;;19.37;29.15;101548.78;10306184;28;20042;-69
2021/03/02 16:02:03;;;;;;;12.73;9.27;;;;;;;19.12;29.55;101549.47;10310074;28;20325;-71
2021/03/02 16:07:13;;;;;;;11.02;9.70;;;;;;;18.82;30.22;101540.56;10333388;28;20277;-70
2021/03/02 16:12:19;;;;;;;11.65;8.80;;;;;;;18.53;30.81;101542.34;10329187;28;20053;-70
2021/03/02 16:17:22;;;;;;;12.43;10.88;;;;;;;18.25;31.07;101535.97;10311203;28;20451;-71
2021/03/02 16:22:30;;;;;;;14.07;9.52;;;;;;;18.07;31.34;101538.53;10344260;28;20055;-69
2021/03/02 16:27:33;;;;;;;10.50;9.07;;;;;;;17.91;31.91;101541.78;10335830;28;20061;-70
2021/03/02 16:32:34;;;;;;;11.45;8.65;;;;;;;17.70;32.35;101533.78;10345307;28;20579;-71
2021/03/02 16:37:36;;;;;;;11.00;8.93;;;;;;;17.47;32.52;101538.53;10313706;28;20062;-71
2021/03/02 16:42:40;;;;;;;11.45;10.13;;;;;;;17.20;33.23;101534.63;10310987;28;20456;-70
2021/03/02 16:47:46;;;;;;;15.57;10.65;;;;;;;16.96;33.56;101534.94;10310690;28;20054;-70
2021/03/02 16:52:55;;;;;;;10.85;9.75;;;;;;;16.76;33.91;101537.50;10305882;28;20062;-71
2021/03/02 16:58:03;;;;;;;10.38;9.13;;;;;;;16.61;34.38;101542.38;10305274;28;20050;-70
2021/03/02 17:03:19;;;;;;;15.15;10.25;;;;;;;16.30;35.03;101551.34;10306116;28;20078;-68
2021/03/02 17:08:21;;;;;;;10.52;9.20;;;;;;;16.01;35.73;101542.03;10304146;28;20065;-70
2021/03/02 17:13:23;;;;;;;10.60;9.20;;;;;;;15.88;35.65;101557.47;10313240;28;20101;-71
2021/03/02 17:18:24;;;;;;;9.73;8.27;;;;;;;15.64;36.47;101561.16;10320475;28;20190;-69
2021/03/02 17:23:27;;;;;;;13.73;10.25;;;;;;;15.44;36.87;101560.06;10312006;28;20058;-71
2021/03/02 17:28:28;;;;;;;16.55;10.75;;;;;;;15.32;37.19;101569.13;10310931;28;20378;-70
2021/03/02 17:33:30;;;;;;;13.98;11.00;;;;;;;15.11;37.79;101582.41;10315633;28;20069;-71
2021/03/02 17:38:32;;;;;;;19.80;15.18;;;;;;;15.07;38.41;101583.63;10315927;28;20077;-69
2021/03/02 17:43:34;;;;;;;16.65;13.77;;;;;;;14.88;38.94;101584.19;10311830;28;20058;-70
2021/03/02 17:48:35;;;;;;;19.50;15.10;;;;;;;14.70;39.42;101586.47;10309849;28;20057;-71
2021/03/02 17:53:37;;;;;;;19.88;14.60;;;;;;;14.56;39.77;101582.13;10310338;28;20054;-71
2021/03/02 17:58:38;;;;;;;27.52;18.88;;;;;;;14.46;40.21;101585.53;10305569;28;20062;-71
2021/03/02 18:03:40;;;;;;;20.55;17.88;;;;;;;14.25;41.03;101584.47;10308342;28;20134;-70
2021/03/02 18:08:41;;;;;;;18.08;15.27;;;;;;;14.07;41.54;101590.22;10303603;28;20054;-72
2021/03/02 18:13:42;;;;;;;22.35;16.52;;;;;;;13.92;41.99;101596.72;10293863;28;20596;-70
2021/03/02 18:18:44;;;;;;;18.83;15.63;;;;;;;13.79;42.37;101592.22;10295819;28;20042;-68
2021/03/02 18:23:45;;;;;;;17.30;14.50;;;;;;;13.61;43.00;101599.78;10298375;28;20049;-72
2021/03/02 18:28:46;;;;;;;21.90;16.52;;;;;;;13.57;43.46;101600.09;10299105;28;20062;-68
2021/03/02 18:33:48;;;;;;;23.60;18.95;;;;;;;13.44;43.93;101602.81;10295873;28;20062;-70
2021/03/02 18:38:49;;;;;;;22.20;19.85;;;;;;;13.31;44.53;101602.78;10276619;28;20187;-71
2021/03/02 18:43:50;;;;;;;25.08;21.90;;;;;;;13.32;44.20;101604.50;10303498;28;20413;-72
2021/03/02 18:48:52;;;;;;;28.20;22.83;;;;;;;13.18;44.64;101602.81;10293565;28;20097;-69
2021/03/02 18:53:53;;;;;;;28.42;23.95;;;;;;;13.04;45.11;101601.09;10303638;28;20109;-71
2021/03/02 18:58:55;;;;;;;31.90;26.92;;;;;;;12.88;45.93;101601.31;10328506;28;20054;-70
2021/03/02 19:03:56;;;;;;;32.35;27.80;;;;;;;12.86;45.69;101607.72;10300724;28;20108;-70
2021/03/02 19:08:59;;;;;;;28.52;23.92;;;;;;;12.69;46.26;101615.06;10300215;28;20058;-69
2021/03/02 19:14:00;;;;;;;23.48;19.70;;;;;;;12.67;46.00;101611.66;10326191;28;20141;-71
2021/03/02 19:19:02;;;;;;;22.30;15.68;;;;;;;12.76;46.53;101618.19;10330205;28;20061;-70
2021/03/02 19:24:03;;;;;;;19.60;15.73;;;;;;;12.49;46.42;101592.38;10306699;28;20054;-70
2021/03/02 19:29:10;;;;;;;15.57;13.90;;;;;;;12.55;46.52;101617.81;10293002;28;20189;-71
2021/03/02 19:34:11;;;;;;;19.85;16.02;;;;;;;12.40;47.39;101609.03;10296679;28;20042;-69
2021/03/02 19:39:13;;;;;;;17.17;15.18;;;;;;;12.33;47.11;101610.38;10295325;28;20185;-71
2021/03/02 19:44:14;;;;;;;20.98;15.30;;;;;;;12.29;47.87;101615.06;10295077;28;20125;-71
2021/03/02 19:49:16;;;;;;;20.55;15.48;;;;;;;12.23;47.78;101614.63;10296805;28;20100;-71
2021/03/02 19:54:17;;;;;;;21.10;15.93;;;;;;;12.18;48.25;101622.94;10293646;28;20054;-73
2021/03/02 19:59:31;;;;;;;18.20;15.35;;;;;;;12.15;48.34;101623.97;10290261;28;20050;-71
2021/03/02 20:04:32;;;;;;;16.50;14.70;;;;;;;11.99;48.45;101621.47;10295143;28;20141;-70
2021/03/02 20:09:33;;;;;;;18.77;14.77;;;;;;;11.76;49.32;101622.03;10298385;28;20096;-71
2021/03/02 20:14:44;;;;;;;21.70;14.90;;;;;;;11.76;49.72;101638.06;10299176;28;20129;-70
2021/03/02 20:19:49;;;;;;;19.25;16.33;;;;;;;11.56;49.90;101623.28;10297126;28;20057;-70
2021/03/02 20:24:51;;;;;;;18.95;14.98;;;;;;;11.63;50.48;101628.16;10293568;28;20140;-70
2021/03/02 20:29:55;;;;;;;19.00;16.00;;;;;;;11.54;50.42;101628.72;10301763;28;20046;-71
2021/03/02 20:34:56;;;;;;;21.20;16.05;;;;;;;11.38;50.82;101623.50;10311510;28;20042;-70
2021/03/02 20:39:58;;;;;;;19.15;15.02;;;;;;;11.41;50.38;101627.78;10302511;28;20496;-70
2021/03/02 20:44:59;;;;;;;18.27;15.57;;;;;;;11.34;50.47;101629.13;10299558;28;20129;-70
2021/03/02 20:50:01;;;;;;;21.10;16.45;;;;;;;11.35;51.20;101634.38;10306050;28;20256;-70
2021/03/02 20:55:03;;;;;;;20.42;15.45;;;;;;;11.32;50.92;101638.06;10303830;28;20043;-71
2021/03/02 21:00:14;;;;;;;21.35;17.88;;;;;;;11.13;51.34;101633.00;10303468;28;20080;-71
2021/03/02 21:05:16;;;;;;;22.25;16.40;;;;;;;11.13;51.41;101629.47;10305073;28;20121;-71
2021/03/02 21:10:18;;;;;;;18.98;16.02;;;;;;;10.95;52.25;101639.44;10306174;28;20142;-71
2021/03/02 21:15:19;;;;;;;19.17;15.98;;;;;;;10.89;52.22;101635.34;10316306;28;20069;-69
2021/03/02 21:20:25;;;;;;;24.88;17.70;;;;;;;10.73;52.39;101618.56;10318303;28;20089;-71
2021/03/02 21:25:26;;;;;;;22.13;18.00;;;;;;;10.56;52.89;101625.72;10318668;28;20076;-69
2021/03/02 21:30:46;;;;;;;24.33;17.27;;;;;;;10.51;52.69;101625.16;10313434;28;20050;-70
2021/03/02 21:35:47;;;;;;;21.05;16.38;;;;;;;10.42;52.98;101609.72;10314480;28;20094;-69
2021/03/02 21:40:49;;;;;;;21.35;16.83;;;;;;;10.34;53.22;101610.16;10324669;28;20077;-70
2021/03/02 21:45:50;;;;;;;21.65;19.35;;;;;;;10.34;53.42;101611.97;10331360;28;20046;-70
2021/03/02 21:50:53;;;;;;;21.30;18.67;;;;;;;10.34;53.58;101626.13;10360147;28;20050;-69
2021/03/02 21:55:54;;;;;;;22.65;20.05;;;;;;;10.24;53.59;101619.59;10322732;28;20105;-70
2021/03/02 22:01:02;;;;;;;22.73;17.73;;;;;;;10.19;54.33;101621.66;10325274;28;20061;-70
2021/03/02 22:06:04;;;;;;;19.15;16.48;;;;;;;10.13;54.72;101616.69;10346993;28;20052;-70
2021/03/02 22:11:06;;;;;;;21.83;18.42;;;;;;;10.10;55.01;101607.06;10361930;28;20094;-68
2021/03/02 22:16:08;;;;;;;19.02;17.02;;;;;;;10.05;55.19;101617.13;10317911;28;20509;-69
2021/03/02 22:21:09;;;;;;;19.80;15.60;;;;;;;10.01;55.39;101620.88;10314442;28;20141;-70
2021/03/02 22:26:10;;;;;;;20.20;16.60;;;;;;;9.88;55.95;101632.22;10313327;28;20702;-69
2021/03/02 22:31:22;;;;;;;19.88;17.77;;;;;;;9.85;55.81;101634.22;10312017;28;20105;-69
2021/03/02 22:36:24;;;;;;;20.60;18.13;;;;;;;9.82;56.21;101634.38;10314715;28;20058;-69
2021/03/02 22:41:25;;;;;;;24.02;18.50;;;;;;;9.81;56.75;101622.88;10313727;28;20061;-70
2021/03/02 22:46:26;;;;;;;21.42;17.42;;;;;;;9.73;56.65;101617.97;10313646;28;20144;-69
2021/03/02 22:51:27;;;;;;;20.60;17.98;;;;;;;9.61;56.74;101599.16;10310940;28;20074;-70
2021/03/02 22:56:29;;;;;;;20.10;18.00;;;;;;;9.51;57.04;101602.34;10311444;28;20125;-69
2021/03/02 23:01:41;;;;;;;22.20;18.48;;;;;;;9.42;57.27;101589.56;10306266;28;20054;-70
2021/03/02 23:06:43;;;;;;;20.30;18.10;;;;;;;9.46;57.35;101584.94;10311761;28;20116;-69